sensor_id;sensor_type;location;lat;lon;timestamp;temperature;humidity
3792;DHT22;1911;53.768;11.474;2023-05-07T00:01:14;8.60;99.90
3792;DHT22;1911;53.768;11.474;2023-05-07T00:03:39;8.60;99.90
3792;DHT22;1911;53.768;11.474;2023-05-07T00:06:05;8.60;99.90
3792;DHT22;1911;53.768;11.474;2023-05-07T00:08:31;8.70;99.90
3792;DHT22;1911;53.768;11.474;2023-05-07T00:10:56;8.70;99.90
3792;DHT22;1911;53.768;11.474;2023-05-07T00:13:22;8.70;99.90
3792;DHT22;1911;53.768;11.474;2023-05-07T00:15:47;8.60;99.90
3792;DHT22;1911;53.768;11.474;2023-05-07T00:18:13;8.60;99.90
3792;DHT22;1911;53.768;11.474;2023-05-07T00:20:39;8.60;99.90
3792;DHT22;1911;53.768;11.474;2023-05-07T00:23:04;8.60;99.90
3792;DHT22;1911;53.768;11.474;2023-05-07T00:25:30;8.60;99.90
3792;DHT22;1911;53.768;11.474;2023-05-07T00:27:56;8.50;99.90
3792;DHT22;1911;53.768;11.474;2023-05-07T00:30:22;8.60;99.90
3792;DHT22;1911;53.768;11.474;2023-05-07T00:32:48;8.50;99.90
3792;DHT22;1911;53.768;11.474;2023-05-07T00:35:14;8.50;99.90
3792;DHT22;1911;53.768;11.474;2023-05-07T00:37:40;8.60;99.90
3792;DHT22;1911;53.768;11.474;2023-05-07T00:40:06;8.60;99.90
3792;DHT22;1911;53.768;11.474;2023-05-07T00:42:33;8.60;99.90
3792;DHT22;1911;53.768;11.474;2023-05-07T00:44:58;8.60;99.90
3792;DHT22;1911;53.768;11.474;2023-05-07T00:47:25;8.60;99.90
3792;DHT22;1911;53.768;11.474;2023-05-07T00:49:51;8.60;99.90
3792;DHT22;1911;53.768;11.474;2023-05-07T00:52:17;8.60;99.90
3792;DHT22;1911;53.768;11.474;2023-05-07T00:54:44;8.60;99.90
3792;DHT22;1911;53.768;11.474;2023-05-07T00:57:10;8.60;99.90
3792;DHT22;1911;53.768;11.474;2023-05-07T00:59:37;8.60;99.90
3792;DHT22;1911;53.768;11.474;2023-05-07T01:02:05;8.60;99.90
3792;DHT22;1911;53.768;11.474;2023-05-07T01:04:33;8.60;99.90
3792;DHT22;1911;53.768;11.474;2023-05-07T01:06:59;8.50;99.90
3792;DHT22;1911;53.768;11.474;2023-05-07T01:09:26;8.60;99.90
3792;DHT22;1911;53.768;11.474;2023-05-07T01:11:53;8.50;99.90
3792;DHT22;1911;53.768;11.474;2023-05-07T01:14:20;8.50;99.90
3792;DHT22;1911;53.768;11.474;2023-05-07T01:16:47;8.60;99.90
3792;DHT22;1911;53.768;11.474;2023-05-07T01:19:14;8.60;99.90
3792;DHT22;1911;53.768;11.474;2023-05-07T01:21:48;8.60;99.90
3792;DHT22;1911;53.768;11.474;2023-05-07T01:24:14;8.50;99.90
3792;DHT22;1911;53.768;11.474;2023-05-07T01:26:41;8.60;99.90
3792;DHT22;1911;53.768;11.474;2023-05-07T01:29:07;8.50;99.90
3792;DHT22;1911;53.768;11.474;2023-05-07T01:31:33;8.50;99.90
3792;DHT22;1911;53.768;11.474;2023-05-07T01:34:01;8.50;99.90
3792;DHT22;1911;53.768;11.474;2023-05-07T01:36:29;8.50;99.90
3792;DHT22;1911;53.768;11.474;2023-05-07T01:38:55;8.60;99.90
3792;DHT22;1911;53.768;11.474;2023-05-07T01:41:23;8.50;99.90
3792;DHT22;1911;53.768;11.474;2023-05-07T01:43:50;8.50;99.90
3792;DHT22;1911;53.768;11.474;2023-05-07T01:46:17;8.50;99.90
3792;DHT22;1911;53.768;11.474;2023-05-07T01:48:43;8.50;99.90
3792;DHT22;1911;53.768;11.474;2023-05-07T01:51:11;8.50;99.90
3792;DHT22;1911;53.768;11.474;2023-05-07T01:53:37;8.50;99.90
3792;DHT22;1911;53.768;11.474;2023-05-07T01:56:03;8.50;99.90
3792;DHT22;1911;53.768;11.474;2023-05-07T01:58:29;8.50;99.90
3792;DHT22;1911;53.768;11.474;2023-05-07T02:00:54;8.50;99.90
3792;DHT22;1911;53.768;11.474;2023-05-07T02:03:20;8.50;99.90
3792;DHT22;1911;53.768;11.474;2023-05-07T02:05:46;8.50;99.90
3792;DHT22;1911;53.768;11.474;2023-05-07T02:08:11;8.50;99.90
3792;DHT22;1911;53.768;11.474;2023-05-07T02:10:37;8.40;99.90
3792;DHT22;1911;53.768;11.474;2023-05-07T02:13:02;8.50;99.90
3792;DHT22;1911;53.768;11.474;2023-05-07T02:15:28;8.50;99.90
3792;DHT22;1911;53.768;11.474;2023-05-07T02:18:04;8.50;99.90
3792;DHT22;1911;53.768;11.474;2023-05-07T02:20:31;8.50;99.90
3792;DHT22;1911;53.768;11.474;2023-05-07T02:22:57;8.50;99.90
3792;DHT22;1911;53.768;11.474;2023-05-07T02:25:22;8.50;99.90
3792;DHT22;1911;53.768;11.474;2023-05-07T02:27:48;8.50;99.90
3792;DHT22;1911;53.768;11.474;2023-05-07T02:30:14;8.50;99.90
3792;DHT22;1911;53.768;11.474;2023-05-07T02:32:40;8.50;99.90
3792;DHT22;1911;53.768;11.474;2023-05-07T02:35:06;8.50;99.90
3792;DHT22;1911;53.768;11.474;2023-05-07T02:37:32;8.50;99.90
3792;DHT22;1911;53.768;11.474;2023-05-07T02:39:57;8.50;99.90
3792;DHT22;1911;53.768;11.474;2023-05-07T02:42:23;8.40;99.90
3792;DHT22;1911;53.768;11.474;2023-05-07T02:44:48;8.40;99.90
3792;DHT22;1911;53.768;11.474;2023-05-07T02:47:15;8.40;99.90
3792;DHT22;1911;53.768;11.474;2023-05-07T02:49:41;8.40;99.90
3792;DHT22;1911;53.768;11.474;2023-05-07T02:52:07;8.40;99.90
3792;DHT22;1911;53.768;11.474;2023-05-07T02:54:32;8.40;99.90
3792;DHT22;1911;53.768;11.474;2023-05-07T02:56:58;8.40;99.90
3792;DHT22;1911;53.768;11.474;2023-05-07T02:59:24;8.40;99.90
3792;DHT22;1911;53.768;11.474;2023-05-07T03:01:50;8.30;99.90
3792;DHT22;1911;53.768;11.474;2023-05-07T03:04:16;8.40;99.90
3792;DHT22;1911;53.768;11.474;2023-05-07T03:06:41;8.40;99.90
3792;DHT22;1911;53.768;11.474;2023-05-07T03:09:07;8.40;99.90
3792;DHT22;1911;53.768;11.474;2023-05-07T03:11:33;8.40;99.90
3792;DHT22;1911;53.768;11.474;2023-05-07T03:13:58;8.30;99.90
3792;DHT22;1911;53.768;11.474;2023-05-07T03:16:24;8.40;99.90
3792;DHT22;1911;53.768;11.474;2023-05-07T03:18:49;8.50;99.90
3792;DHT22;1911;53.768;11.474;2023-05-07T03:21:15;8.50;99.90
3792;DHT22;1911;53.768;11.474;2023-05-07T03:23:40;8.40;99.90
3792;DHT22;1911;53.768;11.474;2023-05-07T03:26:06;8.40;99.90
3792;DHT22;1911;53.768;11.474;2023-05-07T03:28:32;8.40;99.90
3792;DHT22;1911;53.768;11.474;2023-05-07T03:30:57;8.50;99.90
3792;DHT22;1911;53.768;11.474;2023-05-07T03:33:23;8.50;99.90
3792;DHT22;1911;53.768;11.474;2023-05-07T03:35:49;8.40;99.90
3792;DHT22;1911;53.768;11.474;2023-05-07T03:38:14;8.40;99.90
3792;DHT22;1911;53.768;11.474;2023-05-07T03:40:40;8.50;99.90
3792;DHT22;1911;53.768;11.474;2023-05-07T03:43:05;8.50;99.90
3792;DHT22;1911;53.768;11.474;2023-05-07T03:45:31;8.50;99.90
3792;DHT22;1911;53.768;11.474;2023-05-07T03:47:56;8.40;99.90
3792;DHT22;1911;53.768;11.474;2023-05-07T03:50:22;8.40;99.90
3792;DHT22;1911;53.768;11.474;2023-05-07T03:52:48;8.40;99.90
3792;DHT22;1911;53.768;11.474;2023-05-07T03:55:13;8.40;99.90
3792;DHT22;1911;53.768;11.474;2023-05-07T03:57:39;8.40;99.90
3792;DHT22;1911;53.768;11.474;2023-05-07T04:00:05;8.40;99.90
3792;DHT22;1911;53.768;11.474;2023-05-07T04:02:32;8.40;99.90
3792;DHT22;1911;53.768;11.474;2023-05-07T04:04:58;8.50;99.90
3792;DHT22;1911;53.768;11.474;2023-05-07T04:07:23;8.50;99.90
3792;DHT22;1911;53.768;11.474;2023-05-07T04:09:49;8.50;99.90
3792;DHT22;1911;53.768;11.474;2023-05-07T04:12:15;8.50;99.90
3792;DHT22;1911;53.768;11.474;2023-05-07T04:14:40;8.50;99.90
3792;DHT22;1911;53.768;11.474;2023-05-07T04:17:06;8.50;99.90
3792;DHT22;1911;53.768;11.474;2023-05-07T04:19:33;8.50;99.90
3792;DHT22;1911;53.768;11.474;2023-05-07T04:21:59;8.50;99.90
3792;DHT22;1911;53.768;11.474;2023-05-07T04:24:24;8.60;99.90
3792;DHT22;1911;53.768;11.474;2023-05-07T04:26:50;8.50;99.90
3792;DHT22;1911;53.768;11.474;2023-05-07T04:29:16;8.50;99.90
3792;DHT22;1911;53.768;11.474;2023-05-07T04:31:42;8.60;99.90
3792;DHT22;1911;53.768;11.474;2023-05-07T04:34:10;8.60;99.90
3792;DHT22;1911;53.768;11.474;2023-05-07T04:36:37;8.70;99.90
3792;DHT22;1911;53.768;11.474;2023-05-07T04:39:03;8.70;99.90
3792;DHT22;1911;53.768;11.474;2023-05-07T04:41:29;8.70;99.90
3792;DHT22;1911;53.768;11.474;2023-05-07T04:43:55;8.70;99.90
3792;DHT22;1911;53.768;11.474;2023-05-07T04:46:22;8.60;99.90
3792;DHT22;1911;53.768;11.474;2023-05-07T04:48:49;8.60;99.90
3792;DHT22;1911;53.768;11.474;2023-05-07T04:51:14;8.60;99.90
3792;DHT22;1911;53.768;11.474;2023-05-07T04:53:40;8.70;99.90
3792;DHT22;1911;53.768;11.474;2023-05-07T04:56:06;8.70;99.90
3792;DHT22;1911;53.768;11.474;2023-05-07T04:58:31;8.70;99.90
3792;DHT22;1911;53.768;11.474;2023-05-07T05:00:58;8.70;99.90
3792;DHT22;1911;53.768;11.474;2023-05-07T05:03:23;8.80;99.90
3792;DHT22;1911;53.768;11.474;2023-05-07T05:05:50;8.80;99.90
3792;DHT22;1911;53.768;11.474;2023-05-07T05:08:16;8.90;99.90
3792;DHT22;1911;53.768;11.474;2023-05-07T05:10:42;8.90;99.90
3792;DHT22;1911;53.768;11.474;2023-05-07T05:13:08;8.90;99.90
3792;DHT22;1911;53.768;11.474;2023-05-07T05:15:34;9.00;99.90
3792;DHT22;1911;53.768;11.474;2023-05-07T05:18:00;9.20;99.90
3792;DHT22;1911;53.768;11.474;2023-05-07T05:20:26;9.30;99.90
3792;DHT22;1911;53.768;11.474;2023-05-07T05:22:51;9.40;99.90
3792;DHT22;1911;53.768;11.474;2023-05-07T05:25:17;9.50;99.90
3792;DHT22;1911;53.768;11.474;2023-05-07T05:27:43;9.50;1.00
3792;DHT22;1911;53.768;11.474;2023-05-07T05:30:09;9.60;99.90
3792;DHT22;1911;53.768;11.474;2023-05-07T05:32:34;9.80;99.90
3792;DHT22;1911;53.768;11.474;2023-05-07T05:35:03;10.10;62.10
3792;DHT22;1911;53.768;11.474;2023-05-07T05:37:29;10.50;80.40
3792;DHT22;1911;53.768;11.474;2023-05-07T05:39:56;10.50;44.50
3792;DHT22;1911;53.768;11.474;2023-05-07T05:42:24;10.30;99.90
3792;DHT22;1911;53.768;11.474;2023-05-07T05:44:50;10.40;83.00
3792;DHT22;1911;53.768;11.474;2023-05-07T05:47:15;10.50;1.00
3792;DHT22;1911;53.768;11.474;2023-05-07T05:49:41;10.50;1.00
3792;DHT22;1911;53.768;11.474;2023-05-07T05:52:08;10.50;99.90
3792;DHT22;1911;53.768;11.474;2023-05-07T05:54:34;10.60;1.00
3792;DHT22;1911;53.768;11.474;2023-05-07T05:57:00;10.60;99.90
3792;DHT22;1911;53.768;11.474;2023-05-07T05:59:25;10.40;99.90
3792;DHT22;1911;53.768;11.474;2023-05-07T06:01:51;10.40;1.00
3792;DHT22;1911;53.768;11.474;2023-05-07T06:04:16;10.30;99.90
3792;DHT22;1911;53.768;11.474;2023-05-07T06:06:42;10.40;99.90
3792;DHT22;1911;53.768;11.474;2023-05-07T06:09:07;10.50;99.90
3792;DHT22;1911;53.768;11.474;2023-05-07T06:11:33;10.60;1.00
3792;DHT22;1911;53.768;11.474;2023-05-07T06:13:58;11.50;1.00
3792;DHT22;1911;53.768;11.474;2023-05-07T06:16:25;12.40;99.90
3792;DHT22;1911;53.768;11.474;2023-05-07T06:18:50;12.90;1.00
3792;DHT22;1911;53.768;11.474;2023-05-07T06:21:16;13.50;99.90
3792;DHT22;1911;53.768;11.474;2023-05-07T06:23:41;13.30;1.00
3792;DHT22;1911;53.768;11.474;2023-05-07T06:26:12;12.90;54.60
3792;DHT22;1911;53.768;11.474;2023-05-07T06:28:42;12.10;1.00
3792;DHT22;1911;53.768;11.474;2023-05-07T06:31:39;12.10;1.00
3792;DHT22;1911;53.768;11.474;2023-05-07T06:34:28;12.20;99.90
3792;DHT22;1911;53.768;11.474;2023-05-07T06:36:57;12.50;1.00
3792;DHT22;1911;53.768;11.474;2023-05-07T06:39:33;12.90;99.90
3792;DHT22;1911;53.768;11.474;2023-05-07T06:42:08;13.60;1.00
3792;DHT22;1911;53.768;11.474;2023-05-07T07:08:40;18.60;99.90
3792;DHT22;1911;53.768;11.474;2023-05-07T07:11:06;18.20;4.80
3792;DHT22;1911;53.768;11.474;2023-05-07T07:13:32;18.40;25.10
3792;DHT22;1911;53.768;11.474;2023-05-07T07:15:57;18.90;22.60
3792;DHT22;1911;53.768;11.474;2023-05-07T07:18:23;19.70;1.00
3792;DHT22;1911;53.768;11.474;2023-05-07T07:20:49;19.00;1.00
3792;DHT22;1911;53.768;11.474;2023-05-07T07:23:14;18.40;1.00
3792;DHT22;1911;53.768;11.474;2023-05-07T07:25:40;17.40;1.00
3792;DHT22;1911;53.768;11.474;2023-05-07T07:28:06;16.20;1.00
3792;DHT22;1911;53.768;11.474;2023-05-07T07:30:31;16.50;19.10
3792;DHT22;1911;53.768;11.474;2023-05-07T07:32:57;17.00;1.90
3792;DHT22;1911;53.768;11.474;2023-05-07T07:35:28;17.60;3.60
3792;DHT22;1911;53.768;11.474;2023-05-07T07:37:54;18.20;99.90
3792;DHT22;1911;53.768;11.474;2023-05-07T07:40:20;17.30;1.00
3792;DHT22;1911;53.768;11.474;2023-05-07T07:42:45;16.20;1.00
3792;DHT22;1911;53.768;11.474;2023-05-07T07:45:11;15.80;24.10
3792;DHT22;1911;53.768;11.474;2023-05-07T07:47:37;15.80;93.40
3792;DHT22;1911;53.768;11.474;2023-05-07T07:50:04;15.70;99.90
3792;DHT22;1911;53.768;11.474;2023-05-07T07:52:29;16.50;99.90
3792;DHT22;1911;53.768;11.474;2023-05-07T07:54:55;17.80;28.90
3792;DHT22;1911;53.768;11.474;2023-05-07T07:57:20;18.80;1.00
3792;DHT22;1911;53.768;11.474;2023-05-07T07:59:46;19.30;1.00
3792;DHT22;1911;53.768;11.474;2023-05-07T08:02:12;19.50;2.10
3792;DHT22;1911;53.768;11.474;2023-05-07T08:04:37;19.40;1.00
3792;DHT22;1911;53.768;11.474;2023-05-07T08:07:05;19.80;22.30
3792;DHT22;1911;53.768;11.474;2023-05-07T08:09:31;20.10;99.90
3792;DHT22;1911;53.768;11.474;2023-05-07T08:11:57;20.20;99.90
3792;DHT22;1911;53.768;11.474;2023-05-07T08:14:23;19.80;99.90
3792;DHT22;1911;53.768;11.474;2023-05-07T08:16:48;19.80;99.90
3792;DHT22;1911;53.768;11.474;2023-05-07T08:19:14;19.00;99.90
3792;DHT22;1911;53.768;11.474;2023-05-07T08:21:39;19.70;99.90
3792;DHT22;1911;53.768;11.474;2023-05-07T08:24:06;19.40;99.90
3792;DHT22;1911;53.768;11.474;2023-05-07T08:26:32;19.10;99.90
3792;DHT22;1911;53.768;11.474;2023-05-07T08:28:57;19.50;99.90
3792;DHT22;1911;53.768;11.474;2023-05-07T08:31:23;19.80;99.90
3792;DHT22;1911;53.768;11.474;2023-05-07T08:33:49;19.80;99.90
3792;DHT22;1911;53.768;11.474;2023-05-07T08:36:15;19.40;99.90
3792;DHT22;1911;53.768;11.474;2023-05-07T08:38:40;19.40;99.90
3792;DHT22;1911;53.768;11.474;2023-05-07T08:41:10;18.60;99.90
3792;DHT22;1911;53.768;11.474;2023-05-07T08:43:36;18.70;1.00
3792;DHT22;1911;53.768;11.474;2023-05-07T08:46:04;18.30;99.90
3792;DHT22;1911;53.768;11.474;2023-05-07T08:48:31;17.70;99.90
3792;DHT22;1911;53.768;11.474;2023-05-07T08:50:58;17.60;56.70
3792;DHT22;1911;53.768;11.474;2023-05-07T08:53:24;18.30;1.00
3792;DHT22;1911;53.768;11.474;2023-05-07T08:55:51;18.50;1.00
3792;DHT22;1911;53.768;11.474;2023-05-07T08:58:17;18.80;1.00
3792;DHT22;1911;53.768;11.474;2023-05-07T09:00:43;18.50;99.90
3792;DHT22;1911;53.768;11.474;2023-05-07T09:03:08;18.10;99.90
3792;DHT22;1911;53.768;11.474;2023-05-07T09:05:37;17.40;77.40
3792;DHT22;1911;53.768;11.474;2023-05-07T09:08:03;17.20;23.20
3792;DHT22;1911;53.768;11.474;2023-05-07T09:10:29;17.10;1.30
3792;DHT22;1911;53.768;11.474;2023-05-07T09:12:55;17.00;14.40
3792;DHT22;1911;53.768;11.474;2023-05-07T09:15:20;17.20;1.00
3792;DHT22;1911;53.768;11.474;2023-05-07T09:17:46;17.20;1.00
3792;DHT22;1911;53.768;11.474;2023-05-07T09:20:12;17.20;1.00
3792;DHT22;1911;53.768;11.474;2023-05-07T09:22:38;17.00;23.30
3792;DHT22;1911;53.768;11.474;2023-05-07T09:25:05;16.80;1.40
3792;DHT22;1911;53.768;11.474;2023-05-07T09:27:31;16.30;3.10
3792;DHT22;1911;53.768;11.474;2023-05-07T09:29:57;16.10;1.00
3792;DHT22;1911;53.768;11.474;2023-05-07T09:32:22;15.90;1.00
3792;DHT22;1911;53.768;11.474;2023-05-07T09:34:48;15.80;1.00
3792;DHT22;1911;53.768;11.474;2023-05-07T09:37:13;16.00;55.10
3792;DHT22;1911;53.768;11.474;2023-05-07T09:39:47;15.80;47.00
3792;DHT22;1911;53.768;11.474;2023-05-07T09:42:13;15.90;71.90
3792;DHT22;1911;53.768;11.474;2023-05-07T09:44:41;16.00;68.30
3792;DHT22;1911;53.768;11.474;2023-05-07T09:47:08;16.10;99.90
3792;DHT22;1911;53.768;11.474;2023-05-07T09:49:38;16.00;99.90
3792;DHT22;1911;53.768;11.474;2023-05-07T09:52:06;16.30;99.90
3792;DHT22;1911;53.768;11.474;2023-05-07T09:54:35;16.50;99.90
3792;DHT22;1911;53.768;11.474;2023-05-07T09:57:04;16.50;99.90
3792;DHT22;1911;53.768;11.474;2023-05-07T09:59:31;16.40;99.90
3792;DHT22;1911;53.768;11.474;2023-05-07T10:02:00;16.30;99.90
3792;DHT22;1911;53.768;11.474;2023-05-07T10:04:27;16.00;99.90
3792;DHT22;1911;53.768;11.474;2023-05-07T10:06:52;16.00;99.90
3792;DHT22;1911;53.768;11.474;2023-05-07T10:09:19;16.10;99.90
3792;DHT22;1911;53.768;11.474;2023-05-07T10:11:45;16.50;99.90
3792;DHT22;1911;53.768;11.474;2023-05-07T10:14:11;16.70;99.90
3792;DHT22;1911;53.768;11.474;2023-05-07T10:16:37;16.60;99.90
3792;DHT22;1911;53.768;11.474;2023-05-07T10:19:03;16.60;99.90
3792;DHT22;1911;53.768;11.474;2023-05-07T10:21:30;16.60;99.90
3792;DHT22;1911;53.768;11.474;2023-05-07T10:24:00;16.90;99.90
3792;DHT22;1911;53.768;11.474;2023-05-07T10:26:30;16.90;99.90
3792;DHT22;1911;53.768;11.474;2023-05-07T10:29:02;16.30;99.90
3792;DHT22;1911;53.768;11.474;2023-05-07T10:34:26;16.00;99.90
3792;DHT22;1911;53.768;11.474;2023-05-07T10:36:53;16.00;99.90
3792;DHT22;1911;53.768;11.474;2023-05-07T10:39:20;15.60;99.90
3792;DHT22;1911;53.768;11.474;2023-05-07T10:41:47;15.50;99.90
3792;DHT22;1911;53.768;11.474;2023-05-07T10:44:27;15.60;99.90
3792;DHT22;1911;53.768;11.474;2023-05-07T10:47:08;15.80;99.90
3792;DHT22;1911;53.768;11.474;2023-05-07T10:52:22;15.80;99.90
3792;DHT22;1911;53.768;11.474;2023-05-07T10:57:42;15.90;67.60
3792;DHT22;1911;53.768;11.474;2023-05-07T11:03:04;16.10;99.90
3792;DHT22;1911;53.768;11.474;2023-05-07T11:05:32;15.90;99.90
3792;DHT22;1911;53.768;11.474;2023-05-07T11:08:00;15.90;99.90
3792;DHT22;1911;53.768;11.474;2023-05-07T11:10:49;16.10;99.90
3792;DHT22;1911;53.768;11.474;2023-05-07T11:13:16;16.20;99.90
3792;DHT22;1911;53.768;11.474;2023-05-07T11:15:47;16.60;99.90
3792;DHT22;1911;53.768;11.474;2023-05-07T11:18:15;16.60;99.90
3792;DHT22;1911;53.768;11.474;2023-05-07T11:20:51;16.60;99.90
3792;DHT22;1911;53.768;11.474;2023-05-07T11:26:11;17.00;99.90
3792;DHT22;1911;53.768;11.474;2023-05-07T11:28:43;16.90;99.90
3792;DHT22;1911;53.768;11.474;2023-05-07T11:31:09;17.00;99.90
3792;DHT22;1911;53.768;11.474;2023-05-07T11:33:37;17.10;99.90
3792;DHT22;1911;53.768;11.474;2023-05-07T11:36:03;17.20;99.90
3792;DHT22;1911;53.768;11.474;2023-05-07T11:38:36;17.40;99.90
3792;DHT22;1911;53.768;11.474;2023-05-07T11:41:03;17.40;99.90
3792;DHT22;1911;53.768;11.474;2023-05-07T11:43:31;17.20;99.90
3792;DHT22;1911;53.768;11.474;2023-05-07T11:46:09;17.00;99.90
3792;DHT22;1911;53.768;11.474;2023-05-07T11:48:35;16.90;99.90
3792;DHT22;1911;53.768;11.474;2023-05-07T11:51:02;16.80;99.90
3792;DHT22;1911;53.768;11.474;2023-05-07T11:53:34;16.80;99.90
3792;DHT22;1911;53.768;11.474;2023-05-07T11:56:00;16.60;99.90
3792;DHT22;1911;53.768;11.474;2023-05-07T11:58:31;16.50;99.90
3792;DHT22;1911;53.768;11.474;2023-05-07T12:00:56;16.50;99.90
3792;DHT22;1911;53.768;11.474;2023-05-07T12:03:22;16.90;99.90
3792;DHT22;1911;53.768;11.474;2023-05-07T12:05:48;17.20;99.90
3792;DHT22;1911;53.768;11.474;2023-05-07T12:08:14;17.10;99.90
3792;DHT22;1911;53.768;11.474;2023-05-07T12:10:45;17.20;99.90
3792;DHT22;1911;53.768;11.474;2023-05-07T12:13:23;17.40;1.00
3792;DHT22;1911;53.768;11.474;2023-05-07T12:15:53;17.30;1.00
3792;DHT22;1911;53.768;11.474;2023-05-07T12:18:19;17.00;1.00
3792;DHT22;1911;53.768;11.474;2023-05-07T12:20:45;16.90;1.00
3792;DHT22;1911;53.768;11.474;2023-05-07T12:23:12;17.00;99.90
3792;DHT22;1911;53.768;11.474;2023-05-07T12:25:42;16.90;99.90
3792;DHT22;1911;53.768;11.474;2023-05-07T12:28:16;16.70;99.90
3792;DHT22;1911;53.768;11.474;2023-05-07T12:30:43;16.80;99.90
3792;DHT22;1911;53.768;11.474;2023-05-07T12:33:10;17.10;99.90
3792;DHT22;1911;53.768;11.474;2023-05-07T12:35:40;17.00;99.90
3792;DHT22;1911;53.768;11.474;2023-05-07T12:38:11;16.60;99.90
3792;DHT22;1911;53.768;11.474;2023-05-07T12:40:38;16.70;1.00
3792;DHT22;1911;53.768;11.474;2023-05-07T12:43:04;16.90;83.60
3792;DHT22;1911;53.768;11.474;2023-05-07T12:45:30;17.00;1.00
3792;DHT22;1911;53.768;11.474;2023-05-07T12:47:56;17.10;1.00
3792;DHT22;1911;53.768;11.474;2023-05-07T12:50:26;17.20;1.00
3792;DHT22;1911;53.768;11.474;2023-05-07T12:52:55;17.00;1.00
3792;DHT22;1911;53.768;11.474;2023-05-07T12:55:21;16.90;1.00
3792;DHT22;1911;53.768;11.474;2023-05-07T12:57:50;17.00;1.00
3792;DHT22;1911;53.768;11.474;2023-05-07T13:00:17;17.20;1.00
3792;DHT22;1911;53.768;11.474;2023-05-07T13:02:43;16.90;1.00
3792;DHT22;1911;53.768;11.474;2023-05-07T13:05:12;16.90;1.00
3792;DHT22;1911;53.768;11.474;2023-05-07T13:07:38;17.10;1.00
3792;DHT22;1911;53.768;11.474;2023-05-07T13:10:04;17.40;1.00
3792;DHT22;1911;53.768;11.474;2023-05-07T13:12:30;17.70;1.00
3792;DHT22;1911;53.768;11.474;2023-05-07T13:14:55;17.70;1.00
3792;DHT22;1911;53.768;11.474;2023-05-07T13:17:21;17.60;1.00
3792;DHT22;1911;53.768;11.474;2023-05-07T13:19:46;17.40;1.00
3792;DHT22;1911;53.768;11.474;2023-05-07T13:22:12;17.20;1.00
3792;DHT22;1911;53.768;11.474;2023-05-07T13:24:37;17.20;1.00
3792;DHT22;1911;53.768;11.474;2023-05-07T13:27:03;17.20;1.00
3792;DHT22;1911;53.768;11.474;2023-05-07T13:29:29;17.20;1.00
3792;DHT22;1911;53.768;11.474;2023-05-07T13:31:59;17.30;1.00
3792;DHT22;1911;53.768;11.474;2023-05-07T13:34:25;17.10;1.00
3792;DHT22;1911;53.768;11.474;2023-05-07T13:36:50;16.80;1.00
3792;DHT22;1911;53.768;11.474;2023-05-07T13:39:16;16.70;1.00
3792;DHT22;1911;53.768;11.474;2023-05-07T13:41:42;16.60;1.00
3792;DHT22;1911;53.768;11.474;2023-05-07T13:44:07;16.50;1.00
3792;DHT22;1911;53.768;11.474;2023-05-07T13:46:33;16.60;1.00
3792;DHT22;1911;53.768;11.474;2023-05-07T13:48:58;16.80;1.00
3792;DHT22;1911;53.768;11.474;2023-05-07T13:51:24;17.00;1.00
3792;DHT22;1911;53.768;11.474;2023-05-07T13:53:50;16.90;1.00
3792;DHT22;1911;53.768;11.474;2023-05-07T13:56:15;16.90;1.00
3792;DHT22;1911;53.768;11.474;2023-05-07T13:58:41;16.80;1.00
3792;DHT22;1911;53.768;11.474;2023-05-07T14:01:07;16.70;1.00
3792;DHT22;1911;53.768;11.474;2023-05-07T14:03:32;16.70;1.00
3792;DHT22;1911;53.768;11.474;2023-05-07T14:05:59;16.70;1.00
3792;DHT22;1911;53.768;11.474;2023-05-07T14:08:27;16.70;1.00
3792;DHT22;1911;53.768;11.474;2023-05-07T14:10:52;16.80;1.00
3792;DHT22;1911;53.768;11.474;2023-05-07T14:13:18;16.90;1.00
3792;DHT22;1911;53.768;11.474;2023-05-07T14:15:44;16.80;1.00
3792;DHT22;1911;53.768;11.474;2023-05-07T14:18:14;16.80;1.00
3792;DHT22;1911;53.768;11.474;2023-05-07T14:20:40;17.00;1.00
3792;DHT22;1911;53.768;11.474;2023-05-07T14:23:05;16.90;1.00
3792;DHT22;1911;53.768;11.474;2023-05-07T14:25:32;16.80;1.00
3792;DHT22;1911;53.768;11.474;2023-05-07T14:27:57;16.90;1.00
3792;DHT22;1911;53.768;11.474;2023-05-07T14:30:23;16.90;1.00
3792;DHT22;1911;53.768;11.474;2023-05-07T14:32:50;16.90;1.00
3792;DHT22;1911;53.768;11.474;2023-05-07T14:35:16;16.70;1.00
3792;DHT22;1911;53.768;11.474;2023-05-07T14:37:41;16.40;1.00
3792;DHT22;1911;53.768;11.474;2023-05-07T14:40:07;16.60;1.00
3792;DHT22;1911;53.768;11.474;2023-05-07T14:42:33;16.70;1.00
3792;DHT22;1911;53.768;11.474;2023-05-07T14:44:58;16.80;1.00
3792;DHT22;1911;53.768;11.474;2023-05-07T14:47:24;16.80;1.00
3792;DHT22;1911;53.768;11.474;2023-05-07T14:49:50;16.60;1.00
3792;DHT22;1911;53.768;11.474;2023-05-07T14:52:15;16.30;1.00
3792;DHT22;1911;53.768;11.474;2023-05-07T14:54:41;16.20;1.00
3792;DHT22;1911;53.768;11.474;2023-05-07T14:57:08;16.10;1.00
3792;DHT22;1911;53.768;11.474;2023-05-07T14:59:35;16.10;1.00
3792;DHT22;1911;53.768;11.474;2023-05-07T15:02:01;16.20;1.00
3792;DHT22;1911;53.768;11.474;2023-05-07T15:04:26;16.30;1.00
3792;DHT22;1911;53.768;11.474;2023-05-07T15:06:52;16.50;1.00
3792;DHT22;1911;53.768;11.474;2023-05-07T15:09:19;16.60;1.00
3792;DHT22;1911;53.768;11.474;2023-05-07T15:11:45;16.70;1.00
3792;DHT22;1911;53.768;11.474;2023-05-07T15:14:10;16.70;1.00
3792;DHT22;1911;53.768;11.474;2023-05-07T15:16:36;16.70;1.00
3792;DHT22;1911;53.768;11.474;2023-05-07T15:19:01;16.60;1.00
3792;DHT22;1911;53.768;11.474;2023-05-07T15:21:27;16.70;1.00
3792;DHT22;1911;53.768;11.474;2023-05-07T15:23:53;16.80;1.00
3792;DHT22;1911;53.768;11.474;2023-05-07T15:26:18;16.90;1.00
3792;DHT22;1911;53.768;11.474;2023-05-07T15:28:44;17.00;1.00
3792;DHT22;1911;53.768;11.474;2023-05-07T15:31:10;16.90;1.00
3792;DHT22;1911;53.768;11.474;2023-05-07T15:33:36;16.90;1.00
3792;DHT22;1911;53.768;11.474;2023-05-07T15:36:01;17.00;1.00
3792;DHT22;1911;53.768;11.474;2023-05-07T15:38:28;17.00;4.30
3792;DHT22;1911;53.768;11.474;2023-05-07T15:40:54;16.80;1.00
3792;DHT22;1911;53.768;11.474;2023-05-07T15:43:20;16.80;1.00
3792;DHT22;1911;53.768;11.474;2023-05-07T15:45:46;16.80;1.00
3792;DHT22;1911;53.768;11.474;2023-05-07T15:48:11;16.80;1.00
3792;DHT22;1911;53.768;11.474;2023-05-07T15:50:37;16.70;1.00
3792;DHT22;1911;53.768;11.474;2023-05-07T15:53:03;16.50;1.00
3792;DHT22;1911;53.768;11.474;2023-05-07T15:55:30;16.40;1.00
3792;DHT22;1911;53.768;11.474;2023-05-07T15:57:56;16.30;1.00
3792;DHT22;1911;53.768;11.474;2023-05-07T16:00:25;16.30;1.00
3792;DHT22;1911;53.768;11.474;2023-05-07T16:02:51;16.30;1.00
3792;DHT22;1911;53.768;11.474;2023-05-07T16:05:17;16.50;1.00
3792;DHT22;1911;53.768;11.474;2023-05-07T16:07:42;16.50;1.00
3792;DHT22;1911;53.768;11.474;2023-05-07T16:10:09;16.40;1.00
3792;DHT22;1911;53.768;11.474;2023-05-07T16:12:35;16.30;1.00
3792;DHT22;1911;53.768;11.474;2023-05-07T16:15:01;16.30;1.00
3792;DHT22;1911;53.768;11.474;2023-05-07T16:17:27;16.30;1.00
3792;DHT22;1911;53.768;11.474;2023-05-07T16:19:52;16.30;1.00
3792;DHT22;1911;53.768;11.474;2023-05-07T16:22:18;16.40;1.00
3792;DHT22;1911;53.768;11.474;2023-05-07T16:24:44;16.40;1.00
3792;DHT22;1911;53.768;11.474;2023-05-07T16:27:09;16.60;1.00
3792;DHT22;1911;53.768;11.474;2023-05-07T16:29:35;16.70;1.00
3792;DHT22;1911;53.768;11.474;2023-05-07T16:32:00;16.80;1.00